sensor_id;sensor_type;location;lat;lon;timestamp;temperature;humidity
32201;DHT22;18701;45.588;5.288;2022-07-17T00:01:06;23.50;81.70
32201;DHT22;18701;45.588;5.288;2022-07-17T00:03:32;23.60;82.30
32201;DHT22;18701;45.588;5.288;2022-07-17T00:05:58;23.50;81.70
32201;DHT22;18701;45.588;5.288;2022-07-17T00:08:23;23.40;82.80
32201;DHT22;18701;45.588;5.288;2022-07-17T00:10:52;23.30;82.10
32201;DHT22;18701;45.588;5.288;2022-07-17T00:13:18;23.20;82.20
32201;DHT22;18701;45.588;5.288;2022-07-17T00:15:44;23.20;82.10
32201;DHT22;18701;45.588;5.288;2022-07-17T00:18:10;23.10;82.50
32201;DHT22;18701;45.588;5.288;2022-07-17T00:20:35;23.20;82.30
32201;DHT22;18701;45.588;5.288;2022-07-17T00:23:01;23.10;82.40
32201;DHT22;18701;45.588;5.288;2022-07-17T00:25:27;23.10;83.00
32201;DHT22;18701;45.588;5.288;2022-07-17T00:27:53;23.00;83.00
32201;DHT22;18701;45.588;5.288;2022-07-17T00:30:19;23.00;83.00
32201;DHT22;18701;45.588;5.288;2022-07-17T00:32:45;22.80;83.20
32201;DHT22;18701;45.588;5.288;2022-07-17T00:35:11;22.70;83.10
32201;DHT22;18701;45.588;5.288;2022-07-17T00:37:39;22.70;83.00
32201;DHT22;18701;45.588;5.288;2022-07-17T00:40:07;22.60;83.50
32201;DHT22;18701;45.588;5.288;2022-07-17T00:42:33;22.50;83.70
32201;DHT22;18701;45.588;5.288;2022-07-17T00:44:58;22.60;83.70
32201;DHT22;18701;45.588;5.288;2022-07-17T00:47:27;22.50;83.70
32201;DHT22;18701;45.588;5.288;2022-07-17T00:49:52;22.50;83.70
32201;DHT22;18701;45.588;5.288;2022-07-17T00:52:18;22.50;83.80
32201;DHT22;18701;45.588;5.288;2022-07-17T00:54:45;22.40;84.00
32201;DHT22;18701;45.588;5.288;2022-07-17T00:57:13;22.40;84.00
32201;DHT22;18701;45.588;5.288;2022-07-17T00:59:39;22.30;84.20
32201;DHT22;18701;45.588;5.288;2022-07-17T01:02:06;22.40;84.90
32201;DHT22;18701;45.588;5.288;2022-07-17T01:04:33;22.20;84.40
32201;DHT22;18701;45.588;5.288;2022-07-17T01:06:59;22.10;84.40
32201;DHT22;18701;45.588;5.288;2022-07-17T01:09:29;22.20;84.40
32201;DHT22;18701;45.588;5.288;2022-07-17T01:11:55;22.10;84.80
32201;DHT22;18701;45.588;5.288;2022-07-17T01:14:22;22.00;84.90
32201;DHT22;18701;45.588;5.288;2022-07-17T01:16:52;22.20;85.30
32201;DHT22;18701;45.588;5.288;2022-07-17T01:19:19;22.10;85.00
32201;DHT22;18701;45.588;5.288;2022-07-17T01:21:46;22.10;85.00
32201;DHT22;18701;45.588;5.288;2022-07-17T01:24:13;22.20;85.20
32201;DHT22;18701;45.588;5.288;2022-07-17T01:26:46;22.10;84.90
32201;DHT22;18701;45.588;5.288;2022-07-17T01:29:15;22.10;85.30
32201;DHT22;18701;45.588;5.288;2022-07-17T01:31:42;22.00;85.00
32201;DHT22;18701;45.588;5.288;2022-07-17T01:34:09;21.90;85.30
32201;DHT22;18701;45.588;5.288;2022-07-17T01:36:36;21.90;85.70
32201;DHT22;18701;45.588;5.288;2022-07-17T01:39:03;21.80;86.00
32201;DHT22;18701;45.588;5.288;2022-07-17T01:41:29;21.80;85.80
32201;DHT22;18701;45.588;5.288;2022-07-17T01:43:57;21.60;85.50
32201;DHT22;18701;45.588;5.288;2022-07-17T01:46:26;21.60;85.90
32201;DHT22;18701;45.588;5.288;2022-07-17T01:48:51;21.70;85.60
32201;DHT22;18701;45.588;5.288;2022-07-17T01:51:17;21.60;85.50
32201;DHT22;18701;45.588;5.288;2022-07-17T01:53:43;21.40;86.10
32201;DHT22;18701;45.588;5.288;2022-07-17T01:56:08;21.50;86.90
32201;DHT22;18701;45.588;5.288;2022-07-17T01:58:34;21.50;86.50
32201;DHT22;18701;45.588;5.288;2022-07-17T02:01:00;21.40;86.40
32201;DHT22;18701;45.588;5.288;2022-07-17T02:03:26;21.50;86.60
32201;DHT22;18701;45.588;5.288;2022-07-17T02:05:51;21.40;86.50
32201;DHT22;18701;45.588;5.288;2022-07-17T02:08:17;21.30;86.80
32201;DHT22;18701;45.588;5.288;2022-07-17T02:10:43;21.40;86.30
32201;DHT22;18701;45.588;5.288;2022-07-17T02:13:08;21.30;86.50
32201;DHT22;18701;45.588;5.288;2022-07-17T02:15:34;21.30;86.40
32201;DHT22;18701;45.588;5.288;2022-07-17T02:17:59;21.30;86.70
32201;DHT22;18701;45.588;5.288;2022-07-17T02:20:25;21.10;87.00
32201;DHT22;18701;45.588;5.288;2022-07-17T02:22:51;21.10;87.20
32201;DHT22;18701;45.588;5.288;2022-07-17T02:25:17;21.10;87.40
32201;DHT22;18701;45.588;5.288;2022-07-17T02:27:43;21.00;87.80
32201;DHT22;18701;45.588;5.288;2022-07-17T02:30:18;20.90;87.80
32201;DHT22;18701;45.588;5.288;2022-07-17T02:32:45;20.80;87.80
32201;DHT22;18701;45.588;5.288;2022-07-17T02:35:12;21.00;87.90
32201;DHT22;18701;45.588;5.288;2022-07-17T02:37:38;20.80;87.70
32201;DHT22;18701;45.588;5.288;2022-07-17T02:40:04;21.00;87.70
32201;DHT22;18701;45.588;5.288;2022-07-17T02:42:30;20.80;87.50
32201;DHT22;18701;45.588;5.288;2022-07-17T02:44:58;20.80;87.60
32201;DHT22;18701;45.588;5.288;2022-07-17T02:47:29;20.80;87.90
32201;DHT22;18701;45.588;5.288;2022-07-17T02:49:55;20.80;88.20
32201;DHT22;18701;45.588;5.288;2022-07-17T02:52:21;20.70;88.20
32201;DHT22;18701;45.588;5.288;2022-07-17T02:54:47;20.80;88.10
32201;DHT22;18701;45.588;5.288;2022-07-17T02:57:12;20.70;88.10
32201;DHT22;18701;45.588;5.288;2022-07-17T02:59:38;20.70;87.90
32201;DHT22;18701;45.588;5.288;2022-07-17T03:02:04;20.60;88.20
32201;DHT22;18701;45.588;5.288;2022-07-17T03:04:30;20.60;88.10
32201;DHT22;18701;45.588;5.288;2022-07-17T03:06:56;20.40;88.50
32201;DHT22;18701;45.588;5.288;2022-07-17T03:09:22;20.30;89.00
32201;DHT22;18701;45.588;5.288;2022-07-17T03:11:47;20.40;88.90
32201;DHT22;18701;45.588;5.288;2022-07-17T03:14:13;20.50;88.70
32201;DHT22;18701;45.588;5.288;2022-07-17T03:16:39;20.40;88.90
32201;DHT22;18701;45.588;5.288;2022-07-17T03:19:04;20.20;88.90
32201;DHT22;18701;45.588;5.288;2022-07-17T03:21:30;20.40;89.10
32201;DHT22;18701;45.588;5.288;2022-07-17T03:23:56;20.20;89.10
32201;DHT22;18701;45.588;5.288;2022-07-17T03:26:21;20.10;90.10
32201;DHT22;18701;45.588;5.288;2022-07-17T03:28:47;20.10;89.80
32201;DHT22;18701;45.588;5.288;2022-07-17T03:31:13;20.10;90.00
32201;DHT22;18701;45.588;5.288;2022-07-17T03:33:38;20.10;89.60
32201;DHT22;18701;45.588;5.288;2022-07-17T03:36:04;20.00;89.70
32201;DHT22;18701;45.588;5.288;2022-07-17T03:38:30;20.10;89.60
32201;DHT22;18701;45.588;5.288;2022-07-17T03:40:55;20.20;90.10
32201;DHT22;18701;45.588;5.288;2022-07-17T03:43:21;20.20;89.90
32201;DHT22;18701;45.588;5.288;2022-07-17T03:45:47;20.10;90.00
32201;DHT22;18701;45.588;5.288;2022-07-17T03:48:13;19.90;90.10
32201;DHT22;18701;45.588;5.288;2022-07-17T03:50:39;20.00;89.80
32201;DHT22;18701;45.588;5.288;2022-07-17T03:53:04;20.00;89.90
32201;DHT22;18701;45.588;5.288;2022-07-17T03:55:30;20.10;89.80
32201;DHT22;18701;45.588;5.288;2022-07-17T03:57:56;19.90;90.00
32201;DHT22;18701;45.588;5.288;2022-07-17T04:00:21;19.90;90.10
32201;DHT22;18701;45.588;5.288;2022-07-17T04:02:47;19.90;90.10
32201;DHT22;18701;45.588;5.288;2022-07-17T04:05:13;19.80;90.00
32201;DHT22;18701;45.588;5.288;2022-07-17T04:07:39;19.70;90.30
32201;DHT22;18701;45.588;5.288;2022-07-17T04:10:07;19.80;90.10
32201;DHT22;18701;45.588;5.288;2022-07-17T04:12:33;19.70;90.00
32201;DHT22;18701;45.588;5.288;2022-07-17T04:14:59;19.60;90.20
32201;DHT22;18701;45.588;5.288;2022-07-17T04:17:28;19.60;90.50
32201;DHT22;18701;45.588;5.288;2022-07-17T04:19:56;19.50;90.20
32201;DHT22;18701;45.588;5.288;2022-07-17T04:22:21;19.60;90.30
32201;DHT22;18701;45.588;5.288;2022-07-17T04:24:47;19.60;90.20
32201;DHT22;18701;45.588;5.288;2022-07-17T04:27:13;19.60;90.30
32201;DHT22;18701;45.588;5.288;2022-07-17T04:29:39;19.50;90.30
32201;DHT22;18701;45.588;5.288;2022-07-17T04:32:05;19.50;90.20
32201;DHT22;18701;45.588;5.288;2022-07-17T04:34:31;19.40;90.30
32201;DHT22;18701;45.588;5.288;2022-07-17T04:36:58;19.60;90.40
32201;DHT22;18701;45.588;5.288;2022-07-17T04:39:27;19.60;90.50
32201;DHT22;18701;45.588;5.288;2022-07-17T04:41:53;19.40;90.40
32201;DHT22;18701;45.588;5.288;2022-07-17T04:44:19;19.50;90.50
32201;DHT22;18701;45.588;5.288;2022-07-17T04:46:45;19.50;90.50
32201;DHT22;18701;45.588;5.288;2022-07-17T04:49:10;19.50;90.50
32201;DHT22;18701;45.588;5.288;2022-07-17T04:51:36;19.50;90.60
32201;DHT22;18701;45.588;5.288;2022-07-17T04:54:02;19.50;90.50
32201;DHT22;18701;45.588;5.288;2022-07-17T04:56:27;19.60;90.70
32201;DHT22;18701;45.588;5.288;2022-07-17T04:58:53;19.40;90.70
32201;DHT22;18701;45.588;5.288;2022-07-17T05:01:19;19.50;90.90
32201;DHT22;18701;45.588;5.288;2022-07-17T05:03:44;19.40;90.80
32201;DHT22;18701;45.588;5.288;2022-07-17T05:06:10;19.60;90.70
32201;DHT22;18701;45.588;5.288;2022-07-17T05:08:36;19.60;90.70
32201;DHT22;18701;45.588;5.288;2022-07-17T05:11:02;19.70;90.80
32201;DHT22;18701;45.588;5.288;2022-07-17T05:13:27;19.60;90.80
32201;DHT22;18701;45.588;5.288;2022-07-17T05:15:53;19.70;90.90
32201;DHT22;18701;45.588;5.288;2022-07-17T05:18:21;19.70;90.70
32201;DHT22;18701;45.588;5.288;2022-07-17T05:20:47;19.70;90.70
32201;DHT22;18701;45.588;5.288;2022-07-17T05:23:12;19.70;90.70
32201;DHT22;18701;45.588;5.288;2022-07-17T05:25:38;19.60;90.70
32201;DHT22;18701;45.588;5.288;2022-07-17T05:28:04;19.50;90.80
32201;DHT22;18701;45.588;5.288;2022-07-17T05:30:29;19.60;90.90
32201;DHT22;18701;45.588;5.288;2022-07-17T05:32:55;19.60;90.90
32201;DHT22;18701;45.588;5.288;2022-07-17T05:35:21;19.60;91.00
32201;DHT22;18701;45.588;5.288;2022-07-17T05:37:46;19.60;90.80
32201;DHT22;18701;45.588;5.288;2022-07-17T05:40:12;19.70;91.00
32201;DHT22;18701;45.588;5.288;2022-07-17T05:42:38;19.70;91.10
32201;DHT22;18701;45.588;5.288;2022-07-17T05:45:04;19.70;90.90
32201;DHT22;18701;45.588;5.288;2022-07-17T05:47:30;19.60;91.20
32201;DHT22;18701;45.588;5.288;2022-07-17T05:49:56;19.80;91.10
32201;DHT22;18701;45.588;5.288;2022-07-17T05:52:21;19.60;90.90
32201;DHT22;18701;45.588;5.288;2022-07-17T05:54:47;19.80;91.00
32201;DHT22;18701;45.588;5.288;2022-07-17T05:57:12;20.00;90.60
32201;DHT22;18701;45.588;5.288;2022-07-17T05:59:38;20.00;90.30
32201;DHT22;18701;45.588;5.288;2022-07-17T06:02:04;20.20;90.30
32201;DHT22;18701;45.588;5.288;2022-07-17T06:04:30;20.20;90.40
32201;DHT22;18701;45.588;5.288;2022-07-17T06:06:55;20.10;90.60
32201;DHT22;18701;45.588;5.288;2022-07-17T06:09:21;20.30;90.10
32201;DHT22;18701;45.588;5.288;2022-07-17T06:11:46;20.20;90.20
32201;DHT22;18701;45.588;5.288;2022-07-17T06:14:12;20.40;90.30
32201;DHT22;18701;45.588;5.288;2022-07-17T06:16:38;20.20;90.50
32201;DHT22;18701;45.588;5.288;2022-07-17T06:19:03;20.40;90.50
32201;DHT22;18701;45.588;5.288;2022-07-17T06:21:29;20.40;90.60
32201;DHT22;18701;45.588;5.288;2022-07-17T06:23:54;20.50;90.00
32201;DHT22;18701;45.588;5.288;2022-07-17T06:26:20;20.30;88.70
32201;DHT22;18701;45.588;5.288;2022-07-17T06:28:46;20.00;88.80
32201;DHT22;18701;45.588;5.288;2022-07-17T06:31:11;20.00;89.80
32201;DHT22;18701;45.588;5.288;2022-07-17T06:33:37;20.00;89.90
32201;DHT22;18701;45.588;5.288;2022-07-17T06:36:03;20.00;89.20
32201;DHT22;18701;45.588;5.288;2022-07-17T06:38:29;20.10;89.30
32201;DHT22;18701;45.588;5.288;2022-07-17T06:40:55;20.00;89.30
32201;DHT22;18701;45.588;5.288;2022-07-17T06:43:20;20.10;88.60
32201;DHT22;18701;45.588;5.288;2022-07-17T06:45:46;20.40;88.30
32201;DHT22;18701;45.588;5.288;2022-07-17T06:48:12;20.50;88.00
32201;DHT22;18701;45.588;5.288;2022-07-17T06:50:37;20.60;87.70
32201;DHT22;18701;45.588;5.288;2022-07-17T06:53:03;20.40;87.70
32201;DHT22;18701;45.588;5.288;2022-07-17T06:55:29;20.50;87.40
32201;DHT22;18701;45.588;5.288;2022-07-17T06:57:57;20.70;86.90
32201;DHT22;18701;45.588;5.288;2022-07-17T07:00:22;20.80;87.00
32201;DHT22;18701;45.588;5.288;2022-07-17T07:02:48;21.10;88.10
32201;DHT22;18701;45.588;5.288;2022-07-17T07:05:13;21.10;87.10
32201;DHT22;18701;45.588;5.288;2022-07-17T07:07:39;21.10;87.40
32201;DHT22;18701;45.588;5.288;2022-07-17T07:10:05;20.90;87.80
32201;DHT22;18701;45.588;5.288;2022-07-17T07:12:31;20.80;87.40
32201;DHT22;18701;45.588;5.288;2022-07-17T07:14:56;20.90;87.40
32201;DHT22;18701;45.588;5.288;2022-07-17T07:17:22;21.00;87.90
32201;DHT22;18701;45.588;5.288;2022-07-17T07:19:47;21.10;87.50
32201;DHT22;18701;45.588;5.288;2022-07-17T07:22:13;21.30;86.60
32201;DHT22;18701;45.588;5.288;2022-07-17T07:24:39;21.40;87.30
32201;DHT22;18701;45.588;5.288;2022-07-17T07:27:04;21.50;87.70
32201;DHT22;18701;45.588;5.288;2022-07-17T07:29:30;21.50;87.50
32201;DHT22;18701;45.588;5.288;2022-07-17T07:31:56;21.60;86.60
32201;DHT22;18701;45.588;5.288;2022-07-17T07:34:21;21.40;87.70
32201;DHT22;18701;45.588;5.288;2022-07-17T07:36:47;21.50;87.40
32201;DHT22;18701;45.588;5.288;2022-07-17T07:39:13;21.70;86.50
32201;DHT22;18701;45.588;5.288;2022-07-17T07:41:38;21.80;86.60
32201;DHT22;18701;45.588;5.288;2022-07-17T07:44:04;21.90;86.00
32201;DHT22;18701;45.588;5.288;2022-07-17T07:46:30;21.90;86.30
32201;DHT22;18701;45.588;5.288;2022-07-17T07:48:55;22.00;85.80
32201;DHT22;18701;45.588;5.288;2022-07-17T07:51:21;21.90;86.80
32201;DHT22;18701;45.588;5.288;2022-07-17T07:53:46;22.10;86.40
32201;DHT22;18701;45.588;5.288;2022-07-17T07:56:12;22.10;86.60
32201;DHT22;18701;45.588;5.288;2022-07-17T07:58:38;22.30;86.70
32201;DHT22;18701;45.588;5.288;2022-07-17T08:01:04;22.20;85.80
32201;DHT22;18701;45.588;5.288;2022-07-17T08:03:29;22.30;85.90
32201;DHT22;18701;45.588;5.288;2022-07-17T08:05:55;22.60;86.10
32201;DHT22;18701;45.588;5.288;2022-07-17T08:08:20;22.60;86.40
32201;DHT22;18701;45.588;5.288;2022-07-17T08:10:46;22.40;85.60
32201;DHT22;18701;45.588;5.288;2022-07-17T08:13:12;22.50;86.10
32201;DHT22;18701;45.588;5.288;2022-07-17T08:15:37;22.70;86.40
32201;DHT22;18701;45.588;5.288;2022-07-17T08:18:03;23.00;85.80
32201;DHT22;18701;45.588;5.288;2022-07-17T08:20:29;22.70;85.10
32201;DHT22;18701;45.588;5.288;2022-07-17T08:22:55;22.60;84.90
32201;DHT22;18701;45.588;5.288;2022-07-17T08:25:20;22.70;85.00
32201;DHT22;18701;45.588;5.288;2022-07-17T08:27:46;22.90;86.60
32201;DHT22;18701;45.588;5.288;2022-07-17T08:30:13;23.20;85.30
32201;DHT22;18701;45.588;5.288;2022-07-17T08:32:40;23.30;84.10
32201;DHT22;18701;45.588;5.288;2022-07-17T08:35:06;23.30;84.80
32201;DHT22;18701;45.588;5.288;2022-07-17T08:37:51;23.40;83.80
32201;DHT22;18701;45.588;5.288;2022-07-17T08:40:24;23.40;84.10
32201;DHT22;18701;45.588;5.288;2022-07-17T08:42:51;23.80;84.80
32201;DHT22;18701;45.588;5.288;2022-07-17T08:45:17;23.80;83.50
32201;DHT22;18701;45.588;5.288;2022-07-17T08:47:43;23.80;83.30
32201;DHT22;18701;45.588;5.288;2022-07-17T08:50:11;23.90;84.40
32201;DHT22;18701;45.588;5.288;2022-07-17T08:52:39;24.00;83.10
32201;DHT22;18701;45.588;5.288;2022-07-17T08:55:09;24.10;82.80
32201;DHT22;18701;45.588;5.288;2022-07-17T08:57:37;24.10;81.90
32201;DHT22;18701;45.588;5.288;2022-07-17T09:00:05;24.20;82.50
32201;DHT22;18701;45.588;5.288;2022-07-17T09:02:30;24.30;82.10
32201;DHT22;18701;45.588;5.288;2022-07-17T09:04:56;24.40;81.10
32201;DHT22;18701;45.588;5.288;2022-07-17T09:07:22;24.40;81.40
32201;DHT22;18701;45.588;5.288;2022-07-17T09:09:51;24.50;80.60
32201;DHT22;18701;45.588;5.288;2022-07-17T09:12:17;24.50;79.60
32201;DHT22;18701;45.588;5.288;2022-07-17T09:14:43;24.50;79.80
32201;DHT22;18701;45.588;5.288;2022-07-17T09:17:10;24.60;79.80
32201;DHT22;18701;45.588;5.288;2022-07-17T09:19:43;24.70;80.10
32201;DHT22;18701;45.588;5.288;2022-07-17T09:24:52;24.80;80.30
32201;DHT22;18701;45.588;5.288;2022-07-17T09:27:30;24.90;80.10
32201;DHT22;18701;45.588;5.288;2022-07-17T09:32:29;25.00;79.70
32201;DHT22;18701;45.588;5.288;2022-07-17T09:34:56;25.30;80.30
32201;DHT22;18701;45.588;5.288;2022-07-17T09:37:23;25.10;79.10
32201;DHT22;18701;45.588;5.288;2022-07-17T09:39:50;25.40;80.20
32201;DHT22;18701;45.588;5.288;2022-07-17T09:42:31;25.50;80.10
32201;DHT22;18701;45.588;5.288;2022-07-17T09:47:28;25.70;78.40
32201;DHT22;18701;45.588;5.288;2022-07-17T09:49:55;25.70;79.30
32201;DHT22;18701;45.588;5.288;2022-07-17T09:52:29;25.80;78.40
32201;DHT22;18701;45.588;5.288;2022-07-17T09:54:56;25.80;78.50
32201;DHT22;18701;45.588;5.288;2022-07-17T09:57:32;26.00;79.50
32201;DHT22;18701;45.588;5.288;2022-07-17T10:00:02;26.20;78.30
32201;DHT22;18701;45.588;5.288;2022-07-17T10:02:28;26.20;78.80
32201;DHT22;18701;45.588;5.288;2022-07-17T10:04:57;26.30;79.10
32201;DHT22;18701;45.588;5.288;2022-07-17T10:07:24;26.50;78.50
32201;DHT22;18701;45.588;5.288;2022-07-17T10:09:49;26.40;78.20
32201;DHT22;18701;45.588;5.288;2022-07-17T10:12:16;26.50;76.90
32201;DHT22;18701;45.588;5.288;2022-07-17T10:14:45;26.60;77.10
32201;DHT22;18701;45.588;5.288;2022-07-17T10:17:12;26.60;76.70
32201;DHT22;18701;45.588;5.288;2022-07-17T10:19:47;26.70;77.20
32201;DHT22;18701;45.588;5.288;2022-07-17T10:22:13;27.10;78.20
32201;DHT22;18701;45.588;5.288;2022-07-17T10:24:49;27.20;77.00
32201;DHT22;18701;45.588;5.288;2022-07-17T10:27:48;27.20;77.10
32201;DHT22;18701;45.588;5.288;2022-07-17T10:30:28;27.30;76.40
32201;DHT22;18701;45.588;5.288;2022-07-17T10:32:57;27.60;76.90
32201;DHT22;18701;45.588;5.288;2022-07-17T10:35:27;27.50;74.50
32201;DHT22;18701;45.588;5.288;2022-07-17T10:37:58;27.40;75.00
32201;DHT22;18701;45.588;5.288;2022-07-17T10:40:27;27.50;73.70
32201;DHT22;18701;45.588;5.288;2022-07-17T10:45:33;27.60;74.50
32201;DHT22;18701;45.588;5.288;2022-07-17T10:48:03;27.40;75.30
32201;DHT22;18701;45.588;5.288;2022-07-17T10:50:50;27.70;75.70
32201;DHT22;18701;45.588;5.288;2022-07-17T10:53:30;28.10;75.80
32201;DHT22;18701;45.588;5.288;2022-07-17T10:58:41;28.10;73.40
32201;DHT22;18701;45.588;5.288;2022-07-17T11:01:11;28.20;74.00
32201;DHT22;18701;45.588;5.288;2022-07-17T11:03:43;28.10;74.00
32201;DHT22;18701;45.588;5.288;2022-07-17T11:08:44;28.40;74.30
32201;DHT22;18701;45.588;5.288;2022-07-17T11:11:11;28.60;73.40
32201;DHT22;18701;45.588;5.288;2022-07-17T11:13:37;28.50;73.90
32201;DHT22;18701;45.588;5.288;2022-07-17T11:16:02;28.70;74.10
32201;DHT22;18701;45.588;5.288;2022-07-17T11:18:29;28.90;73.70
32201;DHT22;18701;45.588;5.288;2022-07-17T11:20:58;28.80;73.10
32201;DHT22;18701;45.588;5.288;2022-07-17T11:23:30;28.70;72.80
32201;DHT22;18701;45.588;5.288;2022-07-17T11:25:57;29.20;74.20
32201;DHT22;18701;45.588;5.288;2022-07-17T11:28:29;29.10;72.90
32201;DHT22;18701;45.588;5.288;2022-07-17T11:30:55;29.40;73.20
32201;DHT22;18701;45.588;5.288;2022-07-17T11:33:21;29.10;72.60
32201;DHT22;18701;45.588;5.288;2022-07-17T11:35:47;29.50;72.60
32201;DHT22;18701;45.588;5.288;2022-07-17T11:38:13;29.50;72.90
32201;DHT22;18701;45.588;5.288;2022-07-17T11:40:46;29.50;72.40
32201;DHT22;18701;45.588;5.288;2022-07-17T11:43:12;29.30;73.70
32201;DHT22;18701;45.588;5.288;2022-07-17T11:45:37;29.60;73.20
32201;DHT22;18701;45.588;5.288;2022-07-17T11:48:05;29.60;72.50
32201;DHT22;18701;45.588;5.288;2022-07-17T11:50:31;29.80;73.30
32201;DHT22;18701;45.588;5.288;2022-07-17T11:53:00;29.80;73.90
32201;DHT22;18701;45.588;5.288;2022-07-17T11:55:38;30.00;73.30
32201;DHT22;18701;45.588;5.288;2022-07-17T11:58:04;30.10;73.10
32201;DHT22;18701;45.588;5.288;2022-07-17T12:00:30;30.20;73.90
32201;DHT22;18701;45.588;5.288;2022-07-17T12:03:04;30.30;73.40
32201;DHT22;18701;45.588;5.288;2022-07-17T12:05:33;30.30;73.90
32201;DHT22;18701;45.588;5.288;2022-07-17T12:07:59;30.60;72.50
32201;DHT22;18701;45.588;5.288;2022-07-17T12:10:27;30.40;72.80
32201;DHT22;18701;45.588;5.288;2022-07-17T12:12:55;30.30;72.60
32201;DHT22;18701;45.588;5.288;2022-07-17T12:15:32;30.60;73.40
32201;DHT22;18701;45.588;5.288;2022-07-17T12:17:59;31.10;73.60
32201;DHT22;18701;45.588;5.288;2022-07-17T12:20:24;31.10;72.40
32201;DHT22;18701;45.588;5.288;2022-07-17T12:22:50;30.90;72.50
32201;DHT22;18701;45.588;5.288;2022-07-17T12:25:27;31.30;72.70
32201;DHT22;18701;45.588;5.288;2022-07-17T12:27:53;31.40;72.80
32201;DHT22;18701;45.588;5.288;2022-07-17T12:30:22;31.30;72.90
32201;DHT22;18701;45.588;5.288;2022-07-17T12:32:48;31.20;72.80
32201;DHT22;18701;45.588;5.288;2022-07-17T12:35:14;31.60;72.50
32201;DHT22;18701;45.588;5.288;2022-07-17T12:37:40;31.40;71.80
32201;DHT22;18701;45.588;5.288;2022-07-17T12:40:07;31.20;72.30
32201;DHT22;18701;45.588;5.288;2022-07-17T12:42:33;31.40;72.10
32201;DHT22;18701;45.588;5.288;2022-07-17T12:44:58;31.50;70.90
32201;DHT22;18701;45.588;5.288;2022-07-17T12:47:27;31.60;71.00
32201;DHT22;18701;45.588;5.288;2022-07-17T12:49:56;31.70;71.60
32201;DHT22;18701;45.588;5.288;2022-07-17T12:52:21;31.90;71.80
32201;DHT22;18701;45.588;5.288;2022-07-17T12:54:47;31.90;71.80
32201;DHT22;18701;45.588;5.288;2022-07-17T12:57:13;32.00;71.50
32201;DHT22;18701;45.588;5.288;2022-07-17T12:59:38;32.20;70.90
32201;DHT22;18701;45.588;5.288;2022-07-17T13:02:04;31.90;71.30
32201;DHT22;18701;45.588;5.288;2022-07-17T13:04:30;32.10;71.60
32201;DHT22;18701;45.588;5.288;2022-07-17T13:06:55;32.40;72.40
32201;DHT22;18701;45.588;5.288;2022-07-17T13:09:21;32.50;70.90
32201;DHT22;18701;45.588;5.288;2022-07-17T13:11:47;32.90;71.50
32201;DHT22;18701;45.588;5.288;2022-07-17T13:14:12;32.80;70.70
32201;DHT22;18701;45.588;5.288;2022-07-17T13:16:39;33.20;70.70
32201;DHT22;18701;45.588;5.288;2022-07-17T13:19:05;32.90;71.00
32201;DHT22;18701;45.588;5.288;2022-07-17T13:21:30;32.70;71.20
32201;DHT22;18701;45.588;5.288;2022-07-17T13:23:56;32.60;71.00
32201;DHT22;18701;45.588;5.288;2022-07-17T13:26:22;33.00;70.30
32201;DHT22;18701;45.588;5.288;2022-07-17T13:28:48;33.00;70.30
32201;DHT22;18701;45.588;5.288;2022-07-17T13:31:14;32.60;70.80
32201;DHT22;18701;45.588;5.288;2022-07-17T13:33:39;32.60;71.70
32201;DHT22;18701;45.588;5.288;2022-07-17T13:36:05;33.00;70.80
32201;DHT22;18701;45.588;5.288;2022-07-17T13:38:31;33.00;71.00
32201;DHT22;18701;45.588;5.288;2022-07-17T13:40:57;32.70;70.80
32201;DHT22;18701;45.588;5.288;2022-07-17T13:43:22;32.80;71.30
32201;DHT22;18701;45.588;5.288;2022-07-17T13:45:48;32.80;71.20
32201;DHT22;18701;45.588;5.288;2022-07-17T13:48:13;32.90;71.60
32201;DHT22;18701;45.588;5.288;2022-07-17T13:50:41;33.00;71.30
32201;DHT22;18701;45.588;5.288;2022-07-17T13:53:07;33.00;71.30
32201;DHT22;18701;45.588;5.288;2022-07-17T13:55:33;32.90;71.50
32201;DHT22;18701;45.588;5.288;2022-07-17T13:57:58;33.10;71.70
32201;DHT22;18701;45.588;5.288;2022-07-17T14:00:27;33.10;71.30
32201;DHT22;18701;45.588;5.288;2022-07-17T14:02:53;33.00;71.30
32201;DHT22;18701;45.588;5.288;2022-07-17T14:05:20;33.30;71.10
32201;DHT22;18701;45.588;5.288;2022-07-17T14:07:45;33.50;70.90
32201;DHT22;18701;45.588;5.288;2022-07-17T14:10:11;33.40;70.70
32201;DHT22;18701;45.588;5.288;2022-07-17T14:12:37;33.40;71.60
32201;DHT22;18701;45.588;5.288;2022-07-17T14:15:03;34.00;71.40
32201;DHT22;18701;45.588;5.288;2022-07-17T14:17:29;33.70;70.20
32201;DHT22;18701;45.588;5.288;2022-07-17T14:19:55;33.40;70.80
32201;DHT22;18701;45.588;5.288;2022-07-17T14:22:20;33.30;70.80
32201;DHT22;18701;45.588;5.288;2022-07-17T14:24:46;33.50;70.70
32201;DHT22;18701;45.588;5.288;2022-07-17T14:27:12;33.90;70.50
32201;DHT22;18701;45.588;5.288;2022-07-17T14:29:37;33.80;69.70
32201;DHT22;18701;45.588;5.288;2022-07-17T14:32:03;33.40;70.40
32201;DHT22;18701;45.588;5.288;2022-07-17T14:34:29;33.40;70.00
32201;DHT22;18701;45.588;5.288;2022-07-17T14:36:55;33.50;69.90
32201;DHT22;18701;45.588;5.288;2022-07-17T14:39:20;33.40;69.30
32201;DHT22;18701;45.588;5.288;2022-07-17T14:41:46;33.50;70.10
32201;DHT22;18701;45.588;5.288;2022-07-17T14:44:12;33.20;69.70
32201;DHT22;18701;45.588;5.288;2022-07-17T14:46:38;33.50;70.50
32201;DHT22;18701;45.588;5.288;2022-07-17T14:49:03;33.80;69.80
32201;DHT22;18701;45.588;5.288;2022-07-17T14:51:29;33.90;69.50
32201;DHT22;18701;45.588;5.288;2022-07-17T14:53:55;33.80;69.80
32201;DHT22;18701;45.588;5.288;2022-07-17T14:56:20;33.70;69.30
32201;DHT22;18701;45.588;5.288;2022-07-17T14:58:46;33.40;68.90
32201;DHT22;18701;45.588;5.288;2022-07-17T15:01:11;33.40;69.70
32201;DHT22;18701;45.588;5.288;2022-07-17T15:03:37;33.60;70.20
32201;DHT22;18701;45.588;5.288;2022-07-17T15:06:03;33.50;69.90
32201;DHT22;18701;45.588;5.288;2022-07-17T15:08:29;33.60;69.60
32201;DHT22;18701;45.588;5.288;2022-07-17T15:10:56;33.60;69.40
32201;DHT22;18701;45.588;5.288;2022-07-17T15:13:22;33.70;69.70
32201;DHT22;18701;45.588;5.288;2022-07-17T15:15:47;34.10;69.90
32201;DHT22;18701;45.588;5.288;2022-07-17T15:18:13;33.70;69.60
32201;DHT22;18701;45.588;5.288;2022-07-17T15:20:39;34.10;69.40
32201;DHT22;18701;45.588;5.288;2022-07-17T15:23:05;34.10;69.00
32201;DHT22;18701;45.588;5.288;2022-07-17T15:25:30;34.00;68.50
32201;DHT22;18701;45.588;5.288;2022-07-17T15:27:56;34.00;69.30
32201;DHT22;18701;45.588;5.288;2022-07-17T15:30:22;33.70;69.20
32201;DHT22;18701;45.588;5.288;2022-07-17T15:32:47;33.70;69.70
32201;DHT22;18701;45.588;5.288;2022-07-17T15:35:13;34.00;69.30
32201;DHT22;18701;45.588;5.288;2022-07-17T15:37:38;33.70;69.00
32201;DHT22;18701;45.588;5.288;2022-07-17T15:40:05;33.60;68.80
32201;DHT22;18701;45.588;5.288;2022-07-17T15:42:31;33.70;69.80